createdAt,value
2022-12-28T00:01:18.597Z,40.83
2022-12-28T00:03:46.029Z,43.37
2022-12-28T00:06:14.072Z,41.83
2022-12-28T00:08:41.314Z,42.00
2022-12-28T00:11:20.431Z,45.17
2022-12-28T00:13:55.147Z,46.00
2022-12-28T00:16:27.509Z,43.03
2022-12-28T00:18:55.843Z,48.90
2022-12-28T00:21:23.403Z,45.77
2022-12-28T00:23:57.689Z,43.20
2022-12-28T00:26:30.235Z,40.13
2022-12-28T00:29:04.175Z,38.77
2022-12-28T00:31:33.713Z,45.53
2022-12-28T00:34:01.287Z,46.93
2022-12-28T00:37:12.361Z,42.10
2022-12-28T00:39:15.226Z,42.13
2022-12-28T00:41:42.220Z,38.80
2022-12-28T00:44:09.488Z,40.27
2022-12-28T00:46:36.583Z,43.87
2022-12-28T00:49:03.640Z,42.97
2022-12-28T00:51:30.650Z,42.47
2022-12-28T00:53:57.919Z,48.30
2022-12-28T00:56:24.952Z,42.10
2022-12-28T00:58:57.593Z,40.37
2022-12-28T01:01:25.530Z,42.50
2022-12-28T01:03:55.170Z,40.67
2022-12-28T01:06:22.214Z,39.60
2022-12-28T01:08:49.191Z,38.93
2022-12-28T01:11:29.612Z,39.80
2022-12-28T01:13:59.286Z,35.87
2022-12-28T01:16:29.323Z,38.47
2022-12-28T01:18:58.842Z,45.37
2022-12-28T01:21:28.426Z,36.50
2022-12-28T01:23:57.929Z,34.00
2022-12-28T01:26:25.992Z,34.20
2022-12-28T01:28:52.999Z,37.67
2022-12-28T01:31:20.928Z,37.20
2022-12-28T01:33:48.526Z,40.00
2022-12-28T01:36:18.341Z,57.53
2022-12-28T01:38:46.540Z,37.70
2022-12-28T01:41:19.041Z,36.77
2022-12-28T01:44:10.392Z,37.13
2022-12-28T01:46:49.955Z,40.13
2022-12-28T01:49:27.270Z,37.70
2022-12-28T01:52:12.012Z,43.70
2022-12-28T01:54:49.306Z,40.13
2022-12-28T01:57:17.282Z,38.97
2022-12-28T01:59:51.733Z,37.37
2022-12-28T02:02:22.089Z,41.73
2022-12-28T02:04:49.676Z,37.17
2022-12-28T02:07:28.173Z,39.37
2022-12-28T02:10:40.517Z,35.87
2022-12-28T02:12:47.062Z,37.80
2022-12-28T02:15:17.099Z,37.77
2022-12-28T02:17:48.353Z,37.07
2022-12-28T02:20:15.467Z,39.33
2022-12-28T02:22:58.941Z,37.80
2022-12-28T02:25:37.993Z,39.43
2022-12-28T02:28:37.226Z,38.50
2022-12-28T02:31:12.992Z,38.33
2022-12-28T02:33:56.648Z,36.23
2022-12-28T02:36:29.441Z,34.47
2022-12-28T02:39:05.756Z,35.33
2022-12-28T02:41:34.818Z,38.47
2022-12-28T02:44:02.306Z,36.17
2022-12-28T02:46:53.949Z,35.17
2022-12-28T02:49:46.507Z,36.43
2022-12-28T02:52:50.967Z,38.00
2022-12-28T02:55:39.709Z,35.50
2022-12-28T02:58:33.925Z,36.63
2022-12-28T03:01:20.046Z,39.73
2022-12-28T03:04:25.457Z,39.63
2022-12-28T03:07:19.002Z,38.73
2022-12-28T03:09:54.878Z,38.87
2022-12-28T03:12:37.910Z,36.93
2022-12-28T03:15:29.613Z,37.77
2022-12-28T03:18:28.339Z,36.37
2022-12-28T03:21:15.477Z,39.33
2022-12-28T03:24:05.235Z,37.33
2022-12-28T03:26:53.390Z,38.83
2022-12-28T03:29:41.785Z,36.27
2022-12-28T03:32:09.667Z,35.20
2022-12-28T03:34:37.290Z,38.00
2022-12-28T03:37:38.688Z,35.73
2022-12-28T03:40:19.215Z,36.47
2022-12-28T03:43:09.218Z,36.13
2022-12-28T03:45:46.546Z,36.30
2022-12-28T03:48:18.039Z,37.43
2022-12-28T03:50:48.459Z,37.07
2022-12-28T03:53:19.814Z,35.93
2022-12-28T03:55:48.972Z,39.53
2022-12-28T03:58:20.304Z,37.63
2022-12-28T04:00:47.438Z,38.53
2022-12-28T04:03:14.767Z,36.53
2022-12-28T04:05:42.963Z,37.23
2022-12-28T04:08:10.428Z,38.33
2022-12-28T04:10:37.608Z,40.87
2022-12-28T04:13:05.016Z,36.80
2022-12-28T04:16:00.640Z,37.67
2022-12-28T04:18:30.756Z,36.50
2022-12-28T04:20:58.272Z,37.67
2022-12-28T04:23:25.415Z,41.20
2022-12-28T04:26:08.198Z,41.50
2022-12-28T04:28:36.281Z,40.40
2022-12-28T04:31:19.393Z,38.63
2022-12-28T04:33:53.764Z,38.83
2022-12-28T04:36:20.808Z,37.87
2022-12-28T04:38:50.165Z,37.23
2022-12-28T04:41:17.168Z,39.00
2022-12-28T04:43:44.263Z,36.70
2022-12-28T04:46:14.153Z,38.03
2022-12-28T04:48:41.961Z,38.53
2022-12-28T04:51:21.435Z,35.60
2022-12-28T04:53:49.084Z,36.70
2022-12-28T04:56:17.582Z,38.50
2022-12-28T04:58:46.935Z,40.00
2022-12-28T05:01:17.234Z,37.20
2022-12-28T05:03:52.691Z,39.00
2022-12-28T05:06:23.931Z,37.57
2022-12-28T05:08:51.737Z,38.20
2022-12-28T05:11:21.867Z,40.47
2022-12-28T05:13:49.384Z,38.73
2022-12-28T05:16:21.989Z,37.13
2022-12-28T05:18:49.272Z,38.37
2022-12-28T05:21:21.859Z,37.40
2022-12-28T05:23:49.613Z,38.93
2022-12-28T05:26:18.815Z,39.80
2022-12-28T05:28:45.952Z,38.10
2022-12-28T05:31:16.071Z,37.37
2022-12-28T05:33:43.475Z,36.87
2022-12-28T05:36:16.050Z,36.60
2022-12-28T05:38:43.272Z,37.63
2022-12-28T05:41:14.717Z,38.23
2022-12-28T05:43:42.731Z,37.50
2022-12-28T05:46:12.533Z,38.17
2022-12-28T05:48:41.040Z,39.10
2022-12-28T05:51:19.291Z,38.53
2022-12-28T05:53:47.039Z,37.43
2022-12-28T05:56:18.438Z,39.60
2022-12-28T05:58:51.715Z,37.70
2022-12-28T06:01:21.824Z,37.27
2022-12-28T06:03:53.510Z,39.07
2022-12-28T06:06:21.202Z,39.13
2022-12-28T06:08:49.433Z,38.33
2022-12-28T06:11:23.070Z,36.87
2022-12-28T06:13:51.379Z,39.83
2022-12-28T06:16:24.157Z,37.70
2022-12-28T06:18:52.569Z,36.73
2022-12-28T06:21:21.307Z,38.00
2022-12-28T06:23:49.023Z,38.90
2022-12-28T06:26:19.015Z,36.83
2022-12-28T06:28:46.310Z,40.00
2022-12-28T06:31:18.548Z,38.07
2022-12-28T06:33:46.742Z,38.17
2022-12-28T06:36:22.576Z,40.40
2022-12-28T06:38:50.949Z,37.60
2022-12-28T06:41:19.555Z,39.53
2022-12-28T06:43:47.296Z,39.07
2022-12-28T06:46:16.077Z,38.00
2022-12-28T06:48:43.585Z,39.73
2022-12-28T06:51:24.244Z,40.57
2022-12-28T06:53:52.515Z,38.93
2022-12-28T06:56:22.138Z,37.87
2022-12-28T06:58:50.684Z,36.37
2022-12-28T07:01:20.605Z,37.13
2022-12-28T07:03:50.635Z,37.63
2022-12-28T07:06:19.568Z,37.80
2022-12-28T07:08:47.385Z,39.40
2022-12-28T07:11:18.348Z,36.70
2022-12-28T07:13:45.827Z,37.20
2022-12-28T07:16:19.473Z,34.00
2022-12-28T07:18:47.251Z,35.67
2022-12-28T07:21:21.545Z,32.53
2022-12-28T07:23:49.387Z,33.07
2022-12-28T07:26:24.824Z,38.50
2022-12-28T07:28:54.154Z,36.83
2022-12-28T07:31:23.788Z,37.57
2022-12-28T07:33:52.821Z,34.83
2022-12-28T07:36:21.199Z,32.40
2022-12-28T07:38:48.723Z,33.80
2022-12-28T07:41:41.991Z,34.10
2022-12-28T07:44:10.003Z,31.20
2022-12-28T07:46:38.042Z,29.77
2022-12-28T07:49:05.686Z,26.17
2022-12-28T07:51:37.703Z,28.63
2022-12-28T07:54:05.793Z,26.97
2022-12-28T07:59:04.876Z,30.73
2022-12-28T08:01:34.251Z,32.37
2022-12-28T08:04:07.059Z,32.77
2022-12-28T08:06:36.708Z,35.17
2022-12-28T08:09:05.139Z,32.97
2022-12-28T08:11:34.270Z,37.00
2022-12-28T08:14:02.221Z,35.37
2022-12-28T08:16:32.990Z,35.60
2022-12-28T08:19:00.430Z,37.60
2022-12-28T08:21:42.129Z,40.23
2022-12-28T08:24:12.940Z,40.67
2022-12-28T08:26:40.859Z,36.57
2022-12-28T08:29:10.710Z,37.43
2022-12-28T08:31:40.775Z,37.87
2022-12-28T08:34:10.699Z,35.53
2022-12-28T08:36:37.786Z,37.63
2022-12-28T08:39:04.943Z,41.93
2022-12-28T08:41:31.984Z,42.87
2022-12-28T08:43:59.272Z,43.90
2022-12-28T08:46:31.857Z,44.87
2022-12-28T08:49:00.154Z,45.43
2022-12-28T08:51:36.139Z,48.23
2022-12-28T08:54:03.792Z,50.37
2022-12-28T08:56:35.012Z,47.87
2022-12-28T08:59:02.874Z,51.83
2022-12-28T09:01:42.594Z,56.30
2022-12-28T09:04:14.557Z,56.93
2022-12-28T09:06:41.625Z,55.47
2022-12-28T09:09:12.392Z,52.97
2022-12-28T09:11:40.450Z,54.70
2022-12-28T09:14:20.481Z,48.97
2022-12-28T09:16:50.356Z,50.73
2022-12-28T09:19:17.347Z,48.43
2022-12-28T09:21:48.885Z,49.80
2022-12-28T09:24:15.870Z,49.37
2022-12-28T09:26:43.266Z,46.60
2022-12-28T09:29:12.516Z,45.67
2022-12-28T09:31:41.635Z,43.77
2022-12-28T09:37:00.564Z,43.67
2022-12-28T09:39:27.898Z,43.03
2022-12-28T09:42:17.401Z,45.30
2022-12-28T09:44:53.724Z,44.00
2022-12-28T09:47:58.848Z,43.83
2022-12-28T09:50:35.410Z,44.10
2022-12-28T09:53:38.676Z,45.70
2022-12-28T09:56:28.785Z,46.60
2022-12-28T09:58:56.609Z,44.70
2022-12-28T10:01:25.148Z,44.30
2022-12-28T10:03:52.330Z,47.60
2022-12-28T10:06:29.539Z,47.13
2022-12-28T10:09:01.840Z,46.87
2022-12-28T10:11:35.902Z,45.57
2022-12-28T10:14:34.565Z,43.80
2022-12-28T10:17:02.971Z,42.57
2022-12-28T10:19:30.062Z,44.33
2022-12-28T10:22:01.915Z,45.53
2022-12-28T10:24:31.894Z,44.47
2022-12-28T10:27:02.471Z,42.70
2022-12-28T10:29:32.232Z,43.23
2022-12-28T10:32:12.765Z,42.53
2022-12-28T10:35:03.381Z,44.70
2022-12-28T10:37:37.508Z,45.30
2022-12-28T10:40:18.500Z,46.43
2022-12-28T10:42:52.116Z,43.37
2022-12-28T10:45:22.684Z,47.53
2022-12-28T10:47:55.826Z,45.43
2022-12-28T10:50:49.872Z,50.87
2022-12-28T10:53:39.926Z,47.70
2022-12-28T10:56:12.438Z,46.17
2022-12-28T10:58:42.561Z,46.27
2022-12-28T11:01:12.396Z,47.83
2022-12-28T11:03:41.845Z,47.83
2022-12-28T11:06:27.102Z,43.30
2022-12-28T11:09:12.860Z,44.57
2022-12-28T11:11:42.800Z,46.07
2022-12-28T11:14:32.137Z,46.20
2022-12-28T11:17:09.084Z,47.80
2022-12-28T11:19:36.136Z,46.03
2022-12-28T11:22:03.082Z,45.67
2022-12-28T11:24:33.460Z,46.33
2022-12-28T11:27:03.890Z,47.63
2022-12-28T11:29:31.207Z,48.37
2022-12-28T11:32:13.030Z,47.43
2022-12-28T11:34:40.833Z,45.67
2022-12-28T11:37:14.363Z,43.00
2022-12-28T11:39:49.605Z,47.27
2022-12-28T11:42:39.975Z,47.03
2022-12-28T11:45:15.651Z,46.33
2022-12-28T11:47:42.840Z,44.20
2022-12-28T11:50:50.086Z,46.20
2022-12-28T11:53:23.649Z,45.57
2022-12-28T11:56:04.990Z,45.33
2022-12-28T11:58:35.805Z,45.33
2022-12-28T12:01:02.864Z,47.37
2022-12-28T12:03:57.963Z,48.07
2022-12-28T12:06:43.304Z,44.40
2022-12-28T12:09:22.535Z,45.07
2022-12-28T12:11:57.875Z,43.60
2022-12-28T12:14:32.200Z,45.37
2022-12-28T12:17:27.219Z,44.23
2022-12-28T12:19:59.873Z,44.47
2022-12-28T12:22:35.013Z,46.03
2022-12-28T12:25:15.210Z,47.13
2022-12-28T12:27:46.978Z,45.17
2022-12-28T12:30:16.494Z,46.97
2022-12-28T12:32:56.773Z,47.53
2022-12-28T12:35:29.309Z,47.87
2022-12-28T12:38:29.065Z,47.33
2022-12-28T12:41:19.735Z,46.57
2022-12-28T12:44:04.069Z,45.87
2022-12-28T12:47:05.268Z,43.70
2022-12-28T12:49:54.524Z,41.90
2022-12-28T12:52:30.059Z,42.53
2022-12-28T12:55:05.774Z,42.43
2022-12-28T12:58:00.548Z,43.23
2022-12-28T13:00:48.921Z,43.70
2022-12-28T13:03:37.927Z,44.70
2022-12-28T13:06:06.219Z,44.67
2022-12-28T13:08:42.408Z,44.27
2022-12-28T13:11:12.118Z,44.87
2022-12-28T13:13:41.262Z,46.53
2022-12-28T13:16:36.055Z,44.27
2022-12-28T13:19:06.654Z,45.83
2022-12-28T13:21:45.562Z,44.80
2022-12-28T13:24:29.485Z,44.53
2022-12-28T13:26:58.811Z,43.87
2022-12-28T13:29:31.560Z,44.43
2022-12-28T13:31:58.767Z,46.33
2022-12-28T13:34:35.152Z,43.50
2022-12-28T13:37:13.734Z,43.33
2022-12-28T13:39:42.384Z,42.40
2022-12-28T13:42:17.033Z,43.40
2022-12-28T13:44:49.504Z,41.87
2022-12-28T13:47:16.445Z,41.13
2022-12-28T13:49:46.282Z,43.20
2022-12-28T13:52:19.417Z,43.63
2022-12-28T13:54:54.612Z,41.07
2022-12-28T14:00:12.043Z,41.13
2022-12-28T14:02:41.724Z,42.43
2022-12-28T14:05:15.492Z,42.60
2022-12-28T14:07:42.614Z,43.07
2022-12-28T14:10:11.436Z,41.97
2022-12-28T14:12:39.201Z,41.03
2022-12-28T14:15:07.784Z,41.70
2022-12-28T14:17:37.189Z,41.27
2022-12-28T14:20:04.713Z,41.97
2022-12-28T14:22:34.361Z,42.03
2022-12-28T14:25:14.305Z,41.90
2022-12-28T14:28:06.072Z,42.90
2022-12-28T14:30:42.105Z,41.00
2022-12-28T14:33:24.613Z,41.73
2022-12-28T14:35:58.660Z,43.13
2022-12-28T14:38:33.819Z,44.53
2022-12-28T14:41:02.474Z,41.87
2022-12-28T14:43:33.103Z,43.63
2022-12-28T14:46:28.124Z,44.27
2022-12-28T14:48:55.346Z,43.60
2022-12-28T14:51:31.845Z,44.20
2022-12-28T14:54:17.686Z,46.50
2022-12-28T14:56:49.532Z,47.13
2022-12-28T14:59:24.997Z,45.10
2022-12-28T15:01:52.645Z,44.87
2022-12-28T15:04:36.873Z,44.60
2022-12-28T15:07:05.961Z,45.83
2022-12-28T15:09:33.612Z,44.40
2022-12-28T15:12:29.744Z,45.67
2022-12-28T15:14:56.762Z,44.80
2022-12-28T15:17:26.900Z,44.77
2022-12-28T15:19:58.616Z,45.40
2022-12-28T15:22:25.622Z,45.73
2022-12-28T15:24:52.653Z,42.77
2022-12-28T15:27:19.624Z,45.53
2022-12-28T15:32:33.673Z,44.10
2022-12-28T15:35:00.639Z,45.20
2022-12-28T15:37:27.657Z,42.47
2022-12-28T15:39:54.630Z,45.10
2022-12-28T15:42:21.626Z,45.30
2022-12-28T15:44:51.158Z,47.87
2022-12-28T15:47:18.101Z,48.60
2022-12-28T15:49:45.146Z,50.93
2022-12-28T15:52:12.337Z,49.43
2022-12-28T15:54:42.503Z,47.57
2022-12-28T15:57:14.252Z,52.40
2022-12-28T15:59:41.250Z,51.97
2022-12-28T16:02:11.352Z,54.43
2022-12-28T16:04:38.568Z,53.20
2022-12-28T16:07:05.606Z,51.17
2022-12-28T16:09:32.679Z,48.93
2022-12-28T16:11:59.705Z,49.90
2022-12-28T16:14:26.710Z,49.20
2022-12-28T16:16:53.801Z,52.20
2022-12-28T16:19:21.113Z,49.77
2022-12-28T16:21:51.820Z,43.17
2022-12-28T16:24:20.660Z,44.33
2022-12-28T16:26:47.821Z,42.03
2022-12-28T16:29:14.848Z,38.00
2022-12-28T16:31:42.190Z,47.47
2022-12-28T16:34:15.150Z,42.53
2022-12-28T16:36:44.825Z,49.27
2022-12-28T16:39:17.524Z,45.80
2022-12-28T16:41:44.950Z,49.13
2022-12-28T16:44:17.776Z,50.67
2022-12-28T16:46:44.757Z,45.73
2022-12-28T16:49:12.034Z,48.57
2022-12-28T16:51:41.811Z,48.63
2022-12-28T16:54:12.340Z,48.90
2022-12-28T16:56:39.357Z,49.27
2022-12-28T16:59:06.308Z,44.90
2022-12-28T17:01:33.447Z,52.73
2022-12-28T17:04:04.170Z,54.10
2022-12-28T17:06:31.699Z,50.33
2022-12-28T17:09:04.086Z,57.57
2022-12-28T17:11:31.320Z,54.90
2022-12-28T17:14:06.909Z,53.27
2022-12-28T17:16:36.124Z,44.37
2022-12-28T17:19:03.802Z,44.73
2022-12-28T17:21:32.686Z,42.67
2022-12-28T17:23:59.987Z,48.07
2022-12-28T17:26:27.203Z,49.43
2022-12-28T17:28:54.549Z,50.50
2022-12-28T17:31:22.900Z,50.23
2022-12-28T17:33:54.106Z,47.17
2022-12-28T17:36:22.102Z,52.53
2022-12-28T17:38:49.701Z,52.03
2022-12-28T17:41:22.914Z,48.93
2022-12-28T17:43:55.720Z,49.07
2022-12-28T17:46:26.067Z,43.23
2022-12-28T17:48:57.684Z,45.13
2022-12-28T17:51:26.383Z,43.00
2022-12-28T17:53:55.615Z,45.30
2022-12-28T17:56:22.642Z,46.23
2022-12-28T17:58:55.763Z,42.07
2022-12-28T18:01:22.917Z,49.33
2022-12-28T18:03:50.176Z,47.93
2022-12-28T18:06:17.621Z,47.30
2022-12-28T18:08:44.847Z,44.60
2022-12-28T18:11:12.253Z,45.43
2022-12-28T18:13:40.519Z,46.30
2022-12-28T18:16:10.507Z,47.47
2022-12-28T18:18:37.491Z,41.70
2022-12-28T18:21:07.614Z,41.13
2022-12-28T18:23:35.411Z,42.83
2022-12-28T18:26:12.131Z,42.73
2022-12-28T18:28:39.245Z,44.83
2022-12-28T18:31:07.079Z,47.63
2022-12-28T18:33:34.446Z,45.10
2022-12-28T18:36:06.867Z,45.73
2022-12-28T18:38:35.839Z,44.40
2022-12-28T18:41:02.862Z,44.33
2022-12-28T18:43:30.010Z,45.00
2022-12-28T18:46:02.964Z,46.00
2022-12-28T18:48:31.836Z,49.57
2022-12-28T18:51:02.101Z,48.10
2022-12-28T18:53:31.072Z,47.43
2022-12-28T18:56:05.517Z,50.20
2022-12-28T18:58:35.397Z,52.40
2022-12-28T19:01:32.480Z,51.57
2022-12-28T19:04:00.992Z,50.17
2022-12-28T19:06:29.404Z,51.23
2022-12-28T19:08:59.961Z,52.73
2022-12-28T19:11:27.698Z,48.77
2022-12-28T19:13:54.683Z,47.47
2022-12-28T19:16:27.195Z,41.50
2022-12-28T19:18:57.795Z,52.90
2022-12-28T19:21:29.017Z,47.13
2022-12-28T19:23:58.340Z,45.20
2022-12-28T19:26:25.804Z,43.07
2022-12-28T19:28:53.076Z,44.13
2022-12-28T19:31:20.261Z,49.63
2022-12-28T19:33:47.453Z,50.03
2022-12-28T19:36:14.474Z,50.13
2022-12-28T19:38:41.619Z,47.30
2022-12-28T19:41:11.072Z,52.97
2022-12-28T19:43:38.106Z,52.10
2022-12-28T19:46:09.145Z,52.83
2022-12-28T19:48:36.612Z,51.97
2022-12-28T19:51:04.485Z,46.60
2022-12-28T19:53:31.600Z,46.63
2022-12-28T19:56:03.667Z,50.37
2022-12-28T19:58:33.285Z,49.90
2022-12-28T20:01:05.466Z,48.53
2022-12-28T20:03:32.566Z,49.97
2022-12-28T20:06:09.913Z,46.10
2022-12-28T20:08:37.525Z,47.80
2022-12-28T20:11:05.851Z,50.07
2022-12-28T20:13:33.911Z,50.90
2022-12-28T20:16:00.982Z,52.60
2022-12-28T20:18:28.042Z,50.30
2022-12-28T20:21:21.142Z,52.47
2022-12-28T20:23:53.159Z,50.50
2022-12-28T20:26:21.791Z,47.43
2022-12-28T20:28:50.310Z,50.03
2022-12-28T20:31:17.687Z,47.97
2022-12-28T20:33:45.423Z,45.57
2022-12-28T20:36:14.657Z,46.93
2022-12-28T20:38:41.859Z,47.53
2022-12-28T20:41:31.162Z,43.33
2022-12-28T20:43:59.131Z,43.43
2022-12-28T20:46:26.686Z,44.30
2022-12-28T20:48:53.762Z,44.27
2022-12-28T20:51:20.786Z,44.17
2022-12-28T20:53:47.869Z,45.37
2022-12-28T20:56:14.856Z,45.23
2022-12-28T20:58:41.872Z,47.43
2022-12-28T21:01:13.781Z,48.43
2022-12-28T21:03:41.320Z,49.47
2022-12-28T21:06:09.303Z,48.37
2022-12-28T21:08:36.893Z,49.20
2022-12-28T21:11:04.871Z,49.30
2022-12-28T21:13:32.002Z,49.80
2022-12-28T21:15:59.387Z,46.27
2022-12-28T21:18:26.459Z,43.87
2022-12-28T21:21:01.303Z,46.40
2022-12-28T21:23:30.169Z,43.60
2022-12-28T21:26:04.224Z,47.77
2022-12-28T21:28:31.547Z,45.93
2022-12-28T21:30:59.961Z,47.57
2022-12-28T21:33:27.003Z,46.47
2022-12-28T21:36:04.701Z,46.70
2022-12-28T21:38:32.803Z,48.00
2022-12-28T21:41:05.105Z,46.63
2022-12-28T21:43:32.129Z,45.17
2022-12-28T21:46:02.451Z,44.87
2022-12-28T21:48:34.925Z,45.70
2022-12-28T21:51:31.257Z,47.17
2022-12-28T21:54:00.458Z,48.30
2022-12-28T21:56:28.251Z,43.93
2022-12-28T21:58:57.315Z,46.33
2022-12-28T22:01:43.344Z,51.63
2022-12-28T22:04:31.823Z,51.97
2022-12-28T22:06:59.320Z,47.23
2022-12-28T22:09:44.835Z,49.03
2022-12-28T22:12:31.259Z,47.47
2022-12-28T22:15:17.163Z,50.47
2022-12-28T22:17:44.606Z,49.13
2022-12-28T22:20:13.638Z,53.13
2022-12-28T22:22:42.801Z,55.53
2022-12-28T22:25:11.354Z,53.87
2022-12-28T22:27:38.564Z,51.13
2022-12-28T22:30:06.297Z,55.73
2022-12-28T22:32:33.254Z,53.67
2022-12-28T22:35:00.274Z,53.97
2022-12-28T22:37:27.237Z,54.37
2022-12-28T22:39:54.231Z,53.70
2022-12-28T22:42:21.268Z,53.63
2022-12-28T22:44:48.249Z,53.73
2022-12-28T22:47:15.234Z,51.73
2022-12-28T22:49:42.328Z,55.93
2022-12-28T22:52:09.350Z,50.93
2022-12-28T22:54:36.335Z,50.90
2022-12-28T22:57:03.584Z,50.93
2022-12-28T22:59:30.666Z,54.37
2022-12-28T23:01:57.802Z,52.47
2022-12-28T23:04:24.979Z,52.70
2022-12-28T23:06:52.053Z,53.07
2022-12-28T23:09:19.051Z,52.07
2022-12-28T23:11:46.041Z,51.70
2022-12-28T23:14:42.888Z,52.53
2022-12-28T23:17:14.986Z,51.03
2022-12-28T23:20:01.327Z,52.90
2022-12-28T23:22:49.738Z,50.07
2022-12-28T23:25:38.579Z,47.50
2022-12-28T23:28:09.227Z,44.70
2022-12-28T23:30:38.460Z,47.53
2022-12-28T23:33:05.643Z,46.20
2022-12-28T23:35:33.213Z,46.40
2022-12-28T23:38:00.195Z,45.30
2022-12-28T23:40:27.537Z,46.40
2022-12-28T23:42:54.697Z,48.07
2022-12-28T23:45:22.504Z,50.03
2022-12-28T23:47:52.631Z,50.10
2022-12-28T23:50:20.250Z,49.37
2022-12-28T23:52:47.193Z,47.63
2022-12-28T23:55:14.427Z,49.57
2022-12-28T23:57:41.786Z,45.17
